createdAt,value
2023-03-04T00:00:01.103Z,3
2023-03-04T00:03:01.209Z,3
2023-03-04T00:06:01.169Z,3
2023-03-04T00:09:01.115Z,3
2023-03-04T00:12:01.118Z,3
2023-03-04T00:15:01.105Z,3
2023-03-04T00:18:01.112Z,3
2023-03-04T00:21:01.072Z,3
2023-03-04T00:24:01.144Z,3
2023-03-04T00:27:01.120Z,3
2023-03-04T00:30:02.003Z,3
2023-03-04T00:33:01.120Z,3
2023-03-04T00:36:01.093Z,3
2023-03-04T00:39:01.101Z,3
2023-03-04T00:42:01.076Z,3
2023-03-04T00:45:01.137Z,3
2023-03-04T00:48:01.110Z,3
2023-03-04T00:51:01.118Z,3.4
2023-03-04T00:54:01.345Z,3.4
2023-03-04T00:57:01.152Z,3.4
2023-03-04T01:00:01.112Z,3.4
2023-03-04T01:03:01.134Z,3.4
2023-03-04T01:06:01.104Z,3.4
2023-03-04T01:09:01.110Z,3.4
2023-03-04T01:12:01.155Z,3.4
2023-03-04T01:15:01.094Z,3.4
2023-03-04T01:18:01.262Z,3.4
2023-03-04T01:21:01.174Z,3.4
2023-03-04T01:24:01.108Z,3.4
2023-03-04T01:27:01.102Z,3.6
2023-03-04T01:30:01.105Z,3.6
2023-03-04T01:33:01.113Z,3.6
2023-03-04T01:36:01.104Z,3.6
2023-03-04T01:39:01.095Z,3.6
2023-03-04T01:42:01.090Z,3.6
2023-03-04T01:45:01.151Z,3.7
2023-03-04T01:48:01.109Z,3.7
2023-03-04T01:51:01.086Z,3.7
2023-03-04T01:54:01.124Z,3.7
2023-03-04T01:57:01.087Z,3.7
2023-03-04T02:00:01.116Z,3.7
2023-03-04T02:03:01.171Z,3.7
2023-03-04T02:06:01.100Z,3.7
2023-03-04T02:09:01.135Z,3.7
2023-03-04T02:12:01.113Z,3.7
2023-03-04T02:15:01.122Z,3.7
2023-03-04T02:18:01.180Z,3.7
2023-03-04T02:21:01.113Z,3.7
2023-03-04T02:24:01.152Z,3.9
2023-03-04T02:27:01.094Z,3.9
2023-03-04T02:30:01.143Z,3.9
2023-03-04T02:33:01.129Z,3.9
2023-03-04T02:36:01.089Z,3.9
2023-03-04T02:39:01.164Z,3.9
2023-03-04T02:42:01.138Z,3.9
2023-03-04T02:45:01.139Z,3.9
2023-03-04T02:48:01.120Z,3.9
2023-03-04T02:51:01.126Z,3.9
2023-03-04T02:54:01.174Z,3.9
2023-03-04T02:57:01.107Z,3.9
2023-03-04T03:00:01.043Z,3.9
2023-03-04T03:03:01.286Z,3.9
2023-03-04T03:06:01.164Z,3.9
2023-03-04T03:09:01.110Z,3.9
2023-03-04T03:12:01.114Z,3.9
2023-03-04T03:15:01.242Z,3.9
2023-03-04T03:18:01.528Z,3.9
2023-03-04T03:21:01.108Z,3.9
2023-03-04T03:24:01.184Z,3.9
2023-03-04T03:27:01.154Z,3.9
2023-03-04T03:30:01.095Z,3.9
2023-03-04T03:33:01.101Z,3.9
2023-03-04T03:36:01.352Z,3.9
2023-03-04T03:39:01.114Z,3.9
2023-03-04T03:42:01.109Z,3.9
2023-03-04T03:45:01.176Z,3.9
2023-03-04T03:48:01.115Z,3.9
2023-03-04T03:51:01.160Z,3.9
2023-03-04T03:54:01.162Z,3.9
2023-03-04T03:57:01.156Z,3.9
2023-03-04T04:00:01.405Z,3.9
2023-03-04T04:03:01.369Z,3.9
2023-03-04T04:06:01.175Z,3.9
2023-03-04T04:09:01.123Z,3.9
2023-03-04T04:12:01.139Z,3.9
2023-03-04T04:15:01.757Z,3.9
2023-03-04T04:18:01.198Z,3.9
2023-03-04T04:21:01.123Z,3.9
2023-03-04T04:24:01.194Z,3.9
2023-03-04T04:27:01.168Z,3.9
2023-03-04T04:30:01.219Z,3.9
2023-03-04T04:33:01.163Z,3.9
2023-03-04T04:36:01.255Z,3.9
2023-03-04T04:39:01.172Z,3.9
2023-03-04T04:42:01.127Z,4.2
2023-03-04T04:45:01.173Z,4.2
2023-03-04T04:48:01.194Z,4.2
2023-03-04T04:51:01.169Z,4.2
2023-03-04T04:54:01.284Z,4.2
2023-03-04T04:57:01.110Z,4.2
2023-03-04T05:00:01.156Z,4.2
2023-03-04T05:03:01.284Z,4.2
2023-03-04T05:06:01.198Z,4.2
2023-03-04T05:09:01.095Z,4.2
2023-03-04T05:12:01.107Z,4.2
2023-03-04T05:15:01.099Z,4.2
2023-03-04T05:18:01.131Z,4.2
2023-03-04T05:21:01.141Z,4.2
2023-03-04T05:24:01.116Z,4.2
2023-03-04T05:27:01.102Z,4.2
2023-03-04T05:30:01.149Z,4.2
2023-03-04T05:33:01.128Z,4.2
2023-03-04T05:36:01.303Z,4.2
2023-03-04T05:39:01.142Z,4.2
2023-03-04T05:42:01.169Z,4.2
2023-03-04T05:45:01.142Z,4.2
2023-03-04T05:48:01.148Z,4.2
2023-03-04T05:51:01.136Z,4.2
2023-03-04T05:54:01.192Z,4.2
2023-03-04T05:57:01.146Z,4.1
2023-03-04T06:00:01.199Z,4.1
2023-03-04T06:03:01.302Z,4.1
2023-03-04T06:06:01.185Z,4.1
2023-03-04T06:09:01.346Z,4.1
2023-03-04T06:12:01.186Z,4.1
2023-03-04T06:15:01.123Z,4.1
2023-03-04T06:18:01.214Z,4.1
2023-03-04T06:21:01.169Z,4.1
2023-03-04T06:24:01.150Z,4.1
2023-03-04T06:27:01.263Z,4.1
2023-03-04T06:30:01.754Z,4.1
2023-03-04T06:33:01.184Z,4.1
2023-03-04T06:36:01.283Z,4.1
2023-03-04T06:39:01.124Z,4.1
2023-03-04T06:42:01.206Z,4.1
2023-03-04T06:45:01.205Z,4.1
2023-03-04T06:48:01.181Z,4.1
2023-03-04T06:51:01.172Z,4.1
2023-03-04T06:54:01.198Z,4.1
2023-03-04T06:57:01.148Z,4.1
2023-03-04T07:00:01.216Z,4.1
2023-03-04T07:03:01.200Z,4.1
2023-03-04T07:06:01.268Z,4.1
2023-03-04T07:09:01.321Z,4.1
2023-03-04T07:12:01.180Z,4.1
2023-03-04T07:15:01.374Z,4.1
2023-03-04T07:18:01.170Z,4.1
2023-03-04T07:21:01.167Z,4.1
2023-03-04T07:24:01.196Z,4.1
2023-03-04T07:27:01.177Z,4.1
2023-03-04T07:30:01.337Z,4.1
2023-03-04T07:33:01.260Z,4.4
2023-03-04T07:36:01.252Z,4.4
2023-03-04T07:39:01.156Z,4.4
2023-03-04T07:42:01.128Z,4.4
2023-03-04T07:45:01.185Z,4.4
2023-03-04T07:48:01.242Z,4.4
2023-03-04T07:51:01.348Z,4.4
2023-03-04T07:54:01.204Z,4.4
2023-03-04T07:57:01.184Z,4.4
2023-03-04T08:00:01.609Z,4.4
2023-03-04T08:03:01.176Z,4.4
2023-03-04T08:06:01.190Z,4.4
2023-03-04T08:09:01.178Z,4.4
2023-03-04T08:12:01.291Z,4.4
2023-03-04T08:15:01.245Z,4.4
2023-03-04T08:18:01.138Z,4.4
2023-03-04T08:21:01.311Z,4.4
2023-03-04T08:24:01.269Z,4.4
2023-03-04T08:27:01.255Z,4.9
2023-03-04T08:30:01.158Z,4.9
2023-03-04T08:33:01.256Z,4.9
2023-03-04T08:36:01.135Z,4.9
2023-03-04T08:39:01.202Z,4.9
2023-03-04T08:42:01.160Z,4.9
2023-03-04T08:45:01.190Z,5.1
2023-03-04T08:48:01.157Z,5.1
2023-03-04T08:51:01.232Z,5.1
2023-03-04T08:54:01.176Z,5.1
2023-03-04T08:57:01.197Z,5.1
2023-03-04T09:00:01.251Z,5.1
2023-03-04T09:03:01.211Z,5.1
2023-03-04T09:06:01.231Z,5.1
2023-03-04T09:09:01.126Z,5.1
2023-03-04T09:12:01.145Z,5.1
2023-03-04T09:15:13.980Z,5.1
2023-03-04T09:18:01.854Z,5.1
2023-03-04T09:21:01.209Z,5.1
2023-03-04T09:24:01.169Z,5.1
2023-03-04T09:27:01.289Z,5.1
2023-03-04T09:30:01.185Z,5.1
2023-03-04T09:33:01.171Z,5.1
2023-03-04T09:36:01.546Z,5.1
2023-03-04T09:39:01.144Z,5.1
2023-03-04T09:42:01.168Z,5.1
2023-03-04T09:45:01.160Z,5.1
2023-03-04T09:48:01.222Z,5.1
2023-03-04T09:51:01.191Z,5.1
2023-03-04T09:54:01.238Z,5.1
2023-03-04T09:57:01.208Z,5.1
2023-03-04T10:00:01.245Z,5.1
2023-03-04T10:03:01.174Z,5.1
2023-03-04T10:06:01.192Z,5.1
2023-03-04T10:09:01.188Z,5.1
2023-03-04T10:12:01.235Z,5.1
2023-03-04T10:15:01.164Z,5.1
2023-03-04T10:18:01.123Z,5.1
2023-03-04T10:21:01.153Z,5.1
2023-03-04T10:24:01.204Z,5.1
2023-03-04T10:27:01.153Z,5.1
2023-03-04T10:30:01.180Z,5.1
2023-03-04T10:33:01.205Z,5.1
2023-03-04T10:36:01.208Z,5.1
2023-03-04T10:39:01.122Z,5.6
2023-03-04T10:42:01.419Z,5.6
2023-03-04T10:45:01.143Z,5.6
2023-03-04T10:48:01.277Z,5.6
2023-03-04T10:51:01.201Z,5.6
2023-03-04T10:54:01.149Z,5.6
2023-03-04T10:57:01.148Z,5.8
2023-03-04T11:00:01.301Z,5.8
2023-03-04T11:03:01.097Z,5.8
2023-03-04T11:06:01.271Z,5.8
2023-03-04T11:09:01.259Z,5.8
2023-03-04T11:12:01.191Z,5.8
2023-03-04T11:15:01.144Z,5.8
2023-03-04T11:18:01.172Z,5.8
2023-03-04T11:21:01.166Z,5.8
2023-03-04T11:24:01.130Z,5.8
2023-03-04T11:27:01.218Z,5.8
2023-03-04T11:30:01.153Z,6.2
2023-03-04T11:33:01.173Z,6.2
2023-03-04T11:36:01.148Z,6.2
2023-03-04T11:39:01.401Z,6.2
2023-03-04T11:42:01.138Z,6.2
2023-03-04T11:45:01.199Z,6.2
2023-03-04T11:48:01.215Z,6.2
2023-03-04T11:51:01.193Z,6.2
2023-03-04T11:54:01.209Z,6.2
2023-03-04T11:57:01.143Z,6.2
2023-03-04T12:00:01.437Z,6.2
2023-03-04T12:03:01.217Z,6.2
2023-03-04T12:06:01.203Z,6.2
2023-03-04T12:09:01.347Z,6.2
2023-03-04T12:12:01.178Z,6.2
2023-03-04T12:15:01.249Z,6.1
2023-03-04T12:18:01.600Z,6.1
2023-03-04T12:21:01.165Z,6.1
2023-03-04T12:24:01.162Z,6.1
2023-03-04T12:27:01.167Z,6.1
2023-03-04T12:30:01.197Z,6.1
2023-03-04T12:33:01.515Z,6.1
2023-03-04T12:36:01.358Z,6.1
2023-03-04T12:39:01.239Z,6.2
2023-03-04T12:42:01.250Z,6.2
2023-03-04T12:45:01.232Z,6.2
2023-03-04T12:48:01.196Z,6.2
2023-03-04T12:51:01.254Z,6.2
2023-03-04T12:54:01.213Z,6.2
2023-03-04T12:57:01.171Z,6.2
2023-03-04T13:00:01.295Z,6.2
2023-03-04T13:03:01.360Z,6.2
2023-03-04T13:06:01.178Z,6.2
2023-03-04T13:09:01.213Z,6.5
2023-03-04T13:12:01.192Z,6.5
2023-03-04T13:15:01.154Z,6.5
2023-03-04T13:18:01.229Z,6.5
2023-03-04T13:21:01.148Z,6.5
2023-03-04T13:24:01.199Z,6.5
2023-03-04T13:27:01.113Z,6.5
2023-03-04T13:30:01.319Z,6.5
2023-03-04T13:33:01.197Z,6.5
2023-03-04T13:36:01.289Z,6.4
2023-03-04T13:39:01.147Z,6.4
2023-03-04T13:42:01.289Z,6.4
2023-03-04T13:45:01.194Z,6.4
2023-03-04T13:48:01.190Z,6.4
2023-03-04T13:51:01.224Z,6.4
2023-03-04T13:54:01.189Z,6.4
2023-03-04T13:57:01.145Z,6.4
2023-03-04T14:00:02.029Z,6.4
2023-03-04T14:03:01.276Z,6.4
2023-03-04T14:06:01.504Z,6.4
2023-03-04T14:09:01.118Z,6.4
2023-03-04T14:12:01.249Z,6.4
2023-03-04T14:15:01.507Z,6.4
2023-03-04T14:18:01.288Z,6.4
2023-03-04T14:21:01.136Z,6.4
2023-03-04T14:24:01.240Z,6.4
2023-03-04T14:27:01.187Z,6.4
2023-03-04T14:30:01.200Z,6.4
2023-03-04T14:33:01.129Z,6.4
2023-03-04T14:36:01.355Z,6.4
2023-03-04T14:39:01.196Z,6.4
2023-03-04T14:42:01.157Z,6.1
2023-03-04T14:45:01.227Z,6.1
2023-03-04T14:48:01.157Z,6.1
2023-03-04T14:51:01.253Z,6.2
2023-03-04T14:54:01.134Z,6.2
2023-03-04T14:57:01.192Z,6.2
2023-03-04T15:00:01.185Z,6.2
2023-03-04T15:03:01.131Z,6.2
2023-03-04T15:06:01.175Z,5.7
2023-03-04T15:09:01.202Z,5.7
2023-03-04T15:12:01.177Z,5.7
2023-03-04T15:15:01.221Z,5.7
2023-03-04T15:18:01.245Z,5.7
2023-03-04T15:21:01.181Z,5.7
2023-03-04T15:24:01.204Z,5.7
2023-03-04T15:27:01.180Z,5.7
2023-03-04T15:30:01.314Z,5.7
2023-03-04T15:33:01.238Z,5.7
2023-03-04T15:36:01.161Z,5.7
2023-03-04T15:39:01.168Z,5.7
2023-03-04T15:42:01.199Z,5.2
2023-03-04T15:45:01.162Z,5.2
2023-03-04T15:48:01.157Z,5.2
2023-03-04T15:51:01.143Z,5.2
2023-03-04T15:54:01.145Z,5.2
2023-03-04T15:57:01.188Z,5.2
2023-03-04T16:00:01.205Z,5.2
2023-03-04T16:03:01.210Z,5.2
2023-03-04T16:06:01.149Z,5.2
2023-03-04T16:09:01.227Z,5.2
2023-03-04T16:12:01.204Z,5.2
2023-03-04T16:15:01.178Z,5.2
2023-03-04T16:18:01.312Z,5.2
2023-03-04T16:21:01.164Z,5.2
2023-03-04T16:24:01.217Z,5.1
2023-03-04T16:27:01.222Z,5.1
2023-03-04T16:30:01.130Z,5.1
2023-03-04T16:33:01.211Z,5.1
2023-03-04T16:36:01.434Z,5.1
2023-03-04T16:39:01.132Z,5.1
2023-03-04T16:42:01.267Z,5.1
2023-03-04T16:45:01.863Z,5.1
2023-03-04T16:48:01.158Z,5.1
2023-03-04T16:51:01.225Z,5.1
2023-03-04T16:54:01.134Z,5.1
2023-03-04T16:57:01.170Z,4.6
2023-03-04T17:00:01.222Z,4.6
2023-03-04T17:03:01.306Z,4.6
2023-03-04T17:06:01.122Z,4.6
2023-03-04T17:09:01.162Z,4.6
2023-03-04T17:12:01.091Z,4.6
2023-03-04T17:15:01.106Z,4.6
2023-03-04T17:18:01.094Z,4.6
2023-03-04T17:21:01.089Z,4.6
2023-03-04T17:24:01.122Z,4.6
2023-03-04T17:27:01.109Z,4.6
2023-03-04T17:30:01.123Z,4.6
2023-03-04T17:33:01.201Z,4.6
2023-03-04T17:36:01.199Z,4.6
2023-03-04T17:39:01.145Z,4.6
2023-03-04T17:42:01.196Z,4.6
2023-03-04T17:45:01.140Z,4.6
2023-03-04T17:48:01.130Z,4.6
2023-03-04T17:51:01.153Z,4.6
2023-03-04T17:54:01.091Z,4.6
2023-03-04T17:57:01.150Z,4.6
2023-03-04T18:00:01.252Z,4.3
2023-03-04T18:03:01.076Z,4.3
2023-03-04T18:06:01.146Z,4.3
2023-03-04T18:09:01.154Z,4.3
2023-03-04T18:12:01.127Z,4.3
2023-03-04T18:15:01.234Z,4.3
2023-03-04T18:18:01.141Z,4.3
2023-03-04T18:21:01.111Z,4.3
2023-03-04T18:24:01.110Z,4.3
2023-03-04T18:27:01.184Z,4.3
2023-03-04T18:30:01.103Z,4.3
2023-03-04T18:33:01.381Z,4.3
2023-03-04T18:36:01.165Z,4.3
2023-03-04T18:39:01.226Z,3.9
2023-03-04T18:42:01.154Z,3.9
2023-03-04T18:45:01.106Z,3.9
2023-03-04T18:48:01.170Z,3.9
2023-03-04T18:51:01.109Z,3.9
2023-03-04T18:54:01.187Z,3.9
2023-03-04T18:57:01.187Z,3.9
2023-03-04T19:00:01.121Z,3.9
2023-03-04T19:03:01.155Z,3.9
2023-03-04T19:06:01.138Z,3.9
2023-03-04T19:09:01.166Z,3.9
2023-03-04T19:12:01.099Z,3.9
2023-03-04T19:15:01.146Z,3.9
2023-03-04T19:18:01.101Z,3.9
2023-03-04T19:21:04.916Z,3.9
2023-03-04T19:24:01.095Z,3.9
2023-03-04T19:27:01.147Z,3.9
2023-03-04T19:30:01.128Z,3.9
2023-03-04T19:33:01.145Z,3.9
2023-03-04T19:36:01.216Z,3.9
2023-03-04T19:39:01.166Z,3.9
2023-03-04T19:42:01.155Z,3.9
2023-03-04T19:45:01.159Z,3.9
2023-03-04T19:48:01.084Z,3.9
2023-03-04T19:51:01.173Z,3.9
2023-03-04T19:54:01.222Z,3.9
2023-03-04T19:57:01.130Z,3.9
2023-03-04T20:00:01.140Z,3.9
2023-03-04T20:03:01.099Z,3.9
2023-03-04T20:06:01.102Z,3.9
2023-03-04T20:09:01.522Z,3.9
2023-03-04T20:12:01.096Z,3.9
2023-03-04T20:15:01.065Z,3.9
2023-03-04T20:18:01.197Z,3.9
2023-03-04T20:21:01.138Z,3.9
2023-03-04T20:24:01.107Z,3.9
2023-03-04T20:27:01.878Z,3.6
2023-03-04T20:30:04.213Z,3.6
2023-03-04T20:33:01.113Z,3.6
2023-03-04T20:36:01.178Z,3.6
2023-03-04T20:39:08.254Z,3.6
2023-03-04T20:42:01.091Z,3.6
2023-03-04T20:45:01.129Z,3.6
2023-03-04T20:48:01.129Z,3.6
2023-03-04T20:51:01.150Z,3.6
2023-03-04T20:54:01.105Z,3.6
2023-03-04T20:57:01.125Z,3.6
2023-03-04T21:00:01.145Z,3.4
2023-03-04T21:03:01.089Z,3.4
2023-03-04T21:06:01.149Z,3.4
2023-03-04T21:09:01.080Z,3.4
2023-03-04T21:12:01.444Z,3.4
2023-03-04T21:15:01.083Z,3.4
2023-03-04T21:18:01.131Z,3.4
2023-03-04T21:21:01.068Z,3.4
2023-03-04T21:24:01.167Z,3.4
2023-03-04T21:27:01.110Z,3.4
2023-03-04T21:30:01.126Z,3.4
2023-03-04T21:33:02.309Z,3.3
2023-03-04T21:36:01.207Z,3.3
2023-03-04T21:39:01.129Z,3.3
2023-03-04T21:42:01.174Z,3.3
2023-03-04T21:45:01.372Z,3.3
2023-03-04T21:48:01.150Z,3.3
2023-03-04T21:51:01.159Z,3.3
2023-03-04T21:54:01.107Z,3.3
2023-03-04T21:57:01.135Z,3.3
2023-03-04T22:00:01.163Z,3.2
2023-03-04T22:03:01.120Z,3.2
2023-03-04T22:06:01.182Z,3.2
2023-03-04T22:09:01.177Z,3.2
2023-03-04T22:12:01.141Z,3.2
2023-03-04T22:15:01.155Z,3.1
2023-03-04T22:18:01.113Z,3.1
2023-03-04T22:21:01.185Z,3.1
2023-03-04T22:24:01.156Z,3.1
2023-03-04T22:27:01.230Z,3.1
2023-03-04T22:30:01.216Z,3.1
2023-03-04T22:33:01.188Z,3.1
2023-03-04T22:36:01.199Z,3.1
2023-03-04T22:39:01.448Z,3.1
2023-03-04T22:42:01.102Z,3.1
2023-03-04T22:45:01.170Z,3.1
2023-03-04T22:48:01.174Z,3.1
2023-03-04T22:51:01.170Z,3.1
2023-03-04T22:54:01.133Z,3.1
2023-03-04T22:57:01.206Z,3.1
2023-03-04T23:00:01.694Z,3.1
2023-03-04T23:03:01.220Z,3.1
2023-03-04T23:06:01.161Z,3.1
2023-03-04T23:09:01.134Z,3.1
2023-03-04T23:12:01.223Z,3.1
2023-03-04T23:15:01.321Z,3.1
2023-03-04T23:18:01.281Z,3.1
2023-03-04T23:21:01.140Z,3.1
2023-03-04T23:24:01.138Z,3.1
2023-03-04T23:27:01.151Z,3.1
2023-03-04T23:30:01.128Z,3.1
2023-03-04T23:33:01.106Z,3
2023-03-04T23:36:01.244Z,3
2023-03-04T23:39:01.172Z,3
2023-03-04T23:42:01.162Z,3
2023-03-04T23:45:01.211Z,3
2023-03-04T23:48:01.146Z,3
2023-03-04T23:51:01.218Z,3
2023-03-04T23:54:01.132Z,3
2023-03-04T23:57:01.145Z,3
